sensor_id;sensor_type;location;lat;lon;timestamp;P1;durP1;ratioP1;P2;durP2;ratioP2
13743;SDS011;6943;52.368;9.966;2023-04-25T00:01:20;11.13;;;5.07;;
13743;SDS011;6943;52.368;9.966;2023-04-25T00:03:46;8.03;;;4.13;;
13743;SDS011;6943;52.368;9.966;2023-04-25T00:06:12;13.00;;;6.50;;
13743;SDS011;6943;52.368;9.966;2023-04-25T00:08:38;9.90;;;5.70;;
13743;SDS011;6943;52.368;9.966;2023-04-25T00:11:04;10.97;;;5.83;;
13743;SDS011;6943;52.368;9.966;2023-04-25T00:13:29;11.57;;;6.23;;
13743;SDS011;6943;52.368;9.966;2023-04-25T00:15:55;9.63;;;5.47;;
13743;SDS011;6943;52.368;9.966;2023-04-25T00:18:24;11.90;;;5.77;;
13743;SDS011;6943;52.368;9.966;2023-04-25T00:20:53;10.63;;;5.57;;
13743;SDS011;6943;52.368;9.966;2023-04-25T00:23:19;9.57;;;5.10;;
13743;SDS011;6943;52.368;9.966;2023-04-25T00:25:45;11.93;;;5.63;;
13743;SDS011;6943;52.368;9.966;2023-04-25T00:28:11;10.77;;;6.00;;
13743;SDS011;6943;52.368;9.966;2023-04-25T00:30:37;9.27;;;4.77;;
13743;SDS011;6943;52.368;9.966;2023-04-25T00:33:03;11.30;;;5.10;;
13743;SDS011;6943;52.368;9.966;2023-04-25T00:35:28;11.80;;;5.53;;
13743;SDS011;6943;52.368;9.966;2023-04-25T00:37:54;11.53;;;5.93;;
13743;SDS011;6943;52.368;9.966;2023-04-25T00:40:20;8.73;;;5.43;;
13743;SDS011;6943;52.368;9.966;2023-04-25T00:42:46;14.13;;;6.07;;
13743;SDS011;6943;52.368;9.966;2023-04-25T00:45:12;16.27;;;5.00;;
13743;SDS011;6943;52.368;9.966;2023-04-25T00:47:39;9.13;;;5.00;;
13743;SDS011;6943;52.368;9.966;2023-04-25T00:50:05;7.20;;;5.17;;
13743;SDS011;6943;52.368;9.966;2023-04-25T00:52:31;17.63;;;5.60;;
13743;SDS011;6943;52.368;9.966;2023-04-25T00:54:57;8.73;;;5.53;;
13743;SDS011;6943;52.368;9.966;2023-04-25T00:57:23;8.97;;;5.83;;
13743;SDS011;6943;52.368;9.966;2023-04-25T00:59:48;11.80;;;5.10;;
13743;SDS011;6943;52.368;9.966;2023-04-25T01:02:16;11.93;;;5.70;;
13743;SDS011;6943;52.368;9.966;2023-04-25T01:04:42;9.57;;;5.40;;
13743;SDS011;6943;52.368;9.966;2023-04-25T01:07:08;12.90;;;5.40;;
13743;SDS011;6943;52.368;9.966;2023-04-25T01:09:35;10.73;;;5.60;;
13743;SDS011;6943;52.368;9.966;2023-04-25T01:12:01;9.40;;;5.30;;
13743;SDS011;6943;52.368;9.966;2023-04-25T01:14:27;8.70;;;5.00;;
13743;SDS011;6943;52.368;9.966;2023-04-25T01:16:54;9.77;;;5.50;;
13743;SDS011;6943;52.368;9.966;2023-04-25T01:19:19;10.00;;;5.00;;
13743;SDS011;6943;52.368;9.966;2023-04-25T01:21:45;13.43;;;5.20;;
13743;SDS011;6943;52.368;9.966;2023-04-25T01:24:11;8.17;;;5.57;;
13743;SDS011;6943;52.368;9.966;2023-04-25T01:26:37;11.57;;;5.80;;
13743;SDS011;6943;52.368;9.966;2023-04-25T01:29:05;12.97;;;5.83;;
13743;SDS011;6943;52.368;9.966;2023-04-25T01:31:32;10.73;;;5.20;;
13743;SDS011;6943;52.368;9.966;2023-04-25T01:33:59;11.20;;;5.87;;
13743;SDS011;6943;52.368;9.966;2023-04-25T01:36:25;9.43;;;6.40;;
13743;SDS011;6943;52.368;9.966;2023-04-25T01:38:51;14.27;;;6.20;;
13743;SDS011;6943;52.368;9.966;2023-04-25T01:41:17;12.73;;;5.93;;
13743;SDS011;6943;52.368;9.966;2023-04-25T01:43:43;11.53;;;5.50;;
13743;SDS011;6943;52.368;9.966;2023-04-25T01:46:10;9.13;;;5.40;;
13743;SDS011;6943;52.368;9.966;2023-04-25T01:48:36;10.73;;;5.80;;
13743;SDS011;6943;52.368;9.966;2023-04-25T01:51:02;14.40;;;7.13;;
13743;SDS011;6943;52.368;9.966;2023-04-25T01:53:27;11.07;;;6.67;;
13743;SDS011;6943;52.368;9.966;2023-04-25T01:55:53;10.43;;;6.27;;
13743;SDS011;6943;52.368;9.966;2023-04-25T01:58:18;12.87;;;6.40;;
13743;SDS011;6943;52.368;9.966;2023-04-25T02:00:44;11.07;;;6.53;;
13743;SDS011;6943;52.368;9.966;2023-04-25T02:03:09;12.53;;;6.63;;
13743;SDS011;6943;52.368;9.966;2023-04-25T02:05:35;12.90;;;6.67;;
13743;SDS011;6943;52.368;9.966;2023-04-25T02:08:05;14.43;;;6.83;;
13743;SDS011;6943;52.368;9.966;2023-04-25T02:10:32;12.63;;;7.53;;
13743;SDS011;6943;52.368;9.966;2023-04-25T02:12:58;15.87;;;8.17;;
13743;SDS011;6943;52.368;9.966;2023-04-25T02:15:23;12.93;;;7.67;;
13743;SDS011;6943;52.368;9.966;2023-04-25T02:17:49;10.00;;;6.90;;
13743;SDS011;6943;52.368;9.966;2023-04-25T02:20:14;14.47;;;7.30;;
13743;SDS011;6943;52.368;9.966;2023-04-25T02:22:44;13.23;;;8.43;;
13743;SDS011;6943;52.368;9.966;2023-04-25T02:25:10;13.57;;;8.10;;
13743;SDS011;6943;52.368;9.966;2023-04-25T02:27:36;13.53;;;7.43;;
13743;SDS011;6943;52.368;9.966;2023-04-25T02:30:02;12.17;;;7.20;;
13743;SDS011;6943;52.368;9.966;2023-04-25T02:32:28;12.37;;;6.80;;
13743;SDS011;6943;52.368;9.966;2023-04-25T02:34:53;10.97;;;6.37;;
13743;SDS011;6943;52.368;9.966;2023-04-25T02:37:19;12.57;;;5.77;;
13743;SDS011;6943;52.368;9.966;2023-04-25T02:39:44;8.63;;;4.70;;
13743;SDS011;6943;52.368;9.966;2023-04-25T02:42:10;7.27;;;5.20;;
13743;SDS011;6943;52.368;9.966;2023-04-25T02:44:35;11.20;;;5.60;;
13743;SDS011;6943;52.368;9.966;2023-04-25T02:47:01;12.17;;;5.10;;
13743;SDS011;6943;52.368;9.966;2023-04-25T02:49:26;13.00;;;5.27;;
13743;SDS011;6943;52.368;9.966;2023-04-25T02:51:52;9.07;;;5.00;;
13743;SDS011;6943;52.368;9.966;2023-04-25T02:54:17;9.10;;;5.90;;
13743;SDS011;6943;52.368;9.966;2023-04-25T02:56:42;12.33;;;5.37;;
13743;SDS011;6943;52.368;9.966;2023-04-25T02:59:08;10.77;;;5.33;;
13743;SDS011;6943;52.368;9.966;2023-04-25T03:01:33;8.53;;;4.97;;
13743;SDS011;6943;52.368;9.966;2023-04-25T03:03:59;10.87;;;4.10;;
13743;SDS011;6943;52.368;9.966;2023-04-25T03:06:24;13.03;;;4.40;;
13743;SDS011;6943;52.368;9.966;2023-04-25T03:08:50;11.40;;;4.40;;
13743;SDS011;6943;52.368;9.966;2023-04-25T03:11:15;13.47;;;4.13;;
13743;SDS011;6943;52.368;9.966;2023-04-25T03:13:41;13.83;;;3.60;;
13743;SDS011;6943;52.368;9.966;2023-04-25T03:16:06;15.80;;;5.30;;
13743;SDS011;6943;52.368;9.966;2023-04-25T03:18:32;15.97;;;4.77;;
13743;SDS011;6943;52.368;9.966;2023-04-25T03:20:57;13.43;;;4.23;;
13743;SDS011;6943;52.368;9.966;2023-04-25T03:23:23;9.83;;;4.80;;
13743;SDS011;6943;52.368;9.966;2023-04-25T03:25:48;15.57;;;4.70;;
13743;SDS011;6943;52.368;9.966;2023-04-25T03:28:14;12.53;;;4.63;;
13743;SDS011;6943;52.368;9.966;2023-04-25T03:30:39;17.87;;;5.60;;
13743;SDS011;6943;52.368;9.966;2023-04-25T03:33:05;15.47;;;4.20;;
13743;SDS011;6943;52.368;9.966;2023-04-25T03:35:30;15.87;;;4.60;;
13743;SDS011;6943;52.368;9.966;2023-04-25T03:37:56;16.03;;;4.43;;
13743;SDS011;6943;52.368;9.966;2023-04-25T03:40:21;18.13;;;5.23;;
13743;SDS011;6943;52.368;9.966;2023-04-25T03:42:47;13.10;;;4.60;;
13743;SDS011;6943;52.368;9.966;2023-04-25T03:45:12;13.83;;;4.10;;
13743;SDS011;6943;52.368;9.966;2023-04-25T03:47:37;13.93;;;4.43;;
13743;SDS011;6943;52.368;9.966;2023-04-25T03:50:03;12.63;;;4.00;;
13743;SDS011;6943;52.368;9.966;2023-04-25T03:52:29;19.20;;;4.17;;
13743;SDS011;6943;52.368;9.966;2023-04-25T03:54:54;13.47;;;4.13;;
13743;SDS011;6943;52.368;9.966;2023-04-25T03:57:20;16.27;;;5.17;;
13743;SDS011;6943;52.368;9.966;2023-04-25T03:59:45;13.90;;;4.53;;
13743;SDS011;6943;52.368;9.966;2023-04-25T04:02:11;18.37;;;4.07;;
13743;SDS011;6943;52.368;9.966;2023-04-25T04:04:36;19.60;;;4.73;;
13743;SDS011;6943;52.368;9.966;2023-04-25T04:07:02;16.47;;;4.33;;
13743;SDS011;6943;52.368;9.966;2023-04-25T04:09:27;13.30;;;4.57;;
13743;SDS011;6943;52.368;9.966;2023-04-25T04:11:53;15.23;;;5.17;;
13743;SDS011;6943;52.368;9.966;2023-04-25T04:14:18;14.00;;;4.53;;
13743;SDS011;6943;52.368;9.966;2023-04-25T04:16:44;15.73;;;5.07;;
13743;SDS011;6943;52.368;9.966;2023-04-25T04:19:10;18.90;;;4.77;;
13743;SDS011;6943;52.368;9.966;2023-04-25T04:21:35;16.43;;;4.27;;
13743;SDS011;6943;52.368;9.966;2023-04-25T04:24:01;9.60;;;3.97;;
13743;SDS011;6943;52.368;9.966;2023-04-25T04:26:26;11.30;;;3.50;;
13743;SDS011;6943;52.368;9.966;2023-04-25T04:28:52;19.17;;;4.77;;
13743;SDS011;6943;52.368;9.966;2023-04-25T04:31:19;15.53;;;4.10;;
13743;SDS011;6943;52.368;9.966;2023-04-25T04:33:45;16.13;;;4.57;;
13743;SDS011;6943;52.368;9.966;2023-04-25T04:36:11;17.27;;;4.23;;
13743;SDS011;6943;52.368;9.966;2023-04-25T04:38:37;22.47;;;4.67;;
13743;SDS011;6943;52.368;9.966;2023-04-25T04:41:02;10.27;;;3.20;;
13743;SDS011;6943;52.368;9.966;2023-04-25T04:43:28;14.33;;;3.97;;
13743;SDS011;6943;52.368;9.966;2023-04-25T04:45:54;19.23;;;5.23;;
13743;SDS011;6943;52.368;9.966;2023-04-25T04:48:21;12.60;;;4.63;;
13743;SDS011;6943;52.368;9.966;2023-04-25T04:50:46;16.53;;;4.93;;
13743;SDS011;6943;52.368;9.966;2023-04-25T04:53:12;19.90;;;4.60;;
13743;SDS011;6943;52.368;9.966;2023-04-25T04:55:38;14.00;;;3.97;;
13743;SDS011;6943;52.368;9.966;2023-04-25T04:58:03;13.90;;;4.20;;
13743;SDS011;6943;52.368;9.966;2023-04-25T05:00:29;15.47;;;4.70;;
13743;SDS011;6943;52.368;9.966;2023-04-25T05:02:55;11.83;;;3.70;;
13743;SDS011;6943;52.368;9.966;2023-04-25T05:05:21;11.30;;;3.70;;
13743;SDS011;6943;52.368;9.966;2023-04-25T05:07:46;13.07;;;3.47;;
13743;SDS011;6943;52.368;9.966;2023-04-25T05:10:12;14.20;;;3.90;;
13743;SDS011;6943;52.368;9.966;2023-04-25T05:12:37;15.00;;;4.33;;
13743;SDS011;6943;52.368;9.966;2023-04-25T05:15:03;17.73;;;4.33;;
13743;SDS011;6943;52.368;9.966;2023-04-25T05:17:29;13.17;;;4.73;;
13743;SDS011;6943;52.368;9.966;2023-04-25T05:19:54;13.80;;;4.30;;
13743;SDS011;6943;52.368;9.966;2023-04-25T05:22:20;14.90;;;4.07;;
13743;SDS011;6943;52.368;9.966;2023-04-25T05:24:45;13.73;;;3.90;;
13743;SDS011;6943;52.368;9.966;2023-04-25T05:27:11;16.70;;;4.30;;
13743;SDS011;6943;52.368;9.966;2023-04-25T05:29:36;16.83;;;4.80;;
13743;SDS011;6943;52.368;9.966;2023-04-25T05:32:02;13.07;;;4.13;;
13743;SDS011;6943;52.368;9.966;2023-04-25T05:34:27;17.73;;;4.00;;
13743;SDS011;6943;52.368;9.966;2023-04-25T05:36:53;12.07;;;3.83;;
13743;SDS011;6943;52.368;9.966;2023-04-25T05:39:18;14.57;;;3.97;;
13743;SDS011;6943;52.368;9.966;2023-04-25T05:41:44;11.73;;;4.23;;
13743;SDS011;6943;52.368;9.966;2023-04-25T05:44:09;10.80;;;3.50;;
13743;SDS011;6943;52.368;9.966;2023-04-25T05:46:35;14.13;;;4.07;;
13743;SDS011;6943;52.368;9.966;2023-04-25T05:49:00;10.77;;;3.67;;
13743;SDS011;6943;52.368;9.966;2023-04-25T05:51:26;12.10;;;4.13;;
13743;SDS011;6943;52.368;9.966;2023-04-25T05:53:52;11.20;;;3.60;;
13743;SDS011;6943;52.368;9.966;2023-04-25T05:56:17;11.90;;;3.50;;
13743;SDS011;6943;52.368;9.966;2023-04-25T05:58:43;10.33;;;3.50;;
13743;SDS011;6943;52.368;9.966;2023-04-25T06:01:09;10.40;;;4.00;;
13743;SDS011;6943;52.368;9.966;2023-04-25T06:03:34;10.97;;;3.80;;
13743;SDS011;6943;52.368;9.966;2023-04-25T06:06:00;12.67;;;4.23;;
13743;SDS011;6943;52.368;9.966;2023-04-25T06:08:25;10.00;;;3.50;;
13743;SDS011;6943;52.368;9.966;2023-04-25T06:10:51;18.23;;;3.97;;
13743;SDS011;6943;52.368;9.966;2023-04-25T06:13:16;13.67;;;3.50;;
13743;SDS011;6943;52.368;9.966;2023-04-25T06:15:42;13.17;;;3.70;;
13743;SDS011;6943;52.368;9.966;2023-04-25T06:18:08;12.50;;;3.50;;
13743;SDS011;6943;52.368;9.966;2023-04-25T06:20:33;11.80;;;3.20;;
13743;SDS011;6943;52.368;9.966;2023-04-25T06:22:59;12.17;;;3.67;;
13743;SDS011;6943;52.368;9.966;2023-04-25T06:25:24;14.27;;;3.57;;
13743;SDS011;6943;52.368;9.966;2023-04-25T06:27:49;11.47;;;4.10;;
13743;SDS011;6943;52.368;9.966;2023-04-25T06:30:15;7.30;;;3.00;;
13743;SDS011;6943;52.368;9.966;2023-04-25T06:32:43;13.07;;;3.73;;
13743;SDS011;6943;52.368;9.966;2023-04-25T06:35:08;10.80;;;3.00;;
13743;SDS011;6943;52.368;9.966;2023-04-25T06:37:35;8.43;;;3.13;;
13743;SDS011;6943;52.368;9.966;2023-04-25T06:40:00;10.20;;;2.93;;
13743;SDS011;6943;52.368;9.966;2023-04-25T06:42:25;9.73;;;2.70;;
13743;SDS011;6943;52.368;9.966;2023-04-25T06:44:51;7.93;;;2.70;;
13743;SDS011;6943;52.368;9.966;2023-04-25T06:47:16;7.50;;;2.80;;
13743;SDS011;6943;52.368;9.966;2023-04-25T06:49:42;7.97;;;3.07;;
13743;SDS011;6943;52.368;9.966;2023-04-25T06:52:07;9.20;;;3.27;;
13743;SDS011;6943;52.368;9.966;2023-04-25T06:54:33;9.80;;;3.17;;
13743;SDS011;6943;52.368;9.966;2023-04-25T06:56:59;12.50;;;3.17;;
13743;SDS011;6943;52.368;9.966;2023-04-25T06:59:25;12.23;;;3.20;;
13743;SDS011;6943;52.368;9.966;2023-04-25T07:01:51;11.67;;;3.40;;
13743;SDS011;6943;52.368;9.966;2023-04-25T07:04:16;11.20;;;3.67;;
13743;SDS011;6943;52.368;9.966;2023-04-25T07:06:42;9.37;;;4.00;;
13743;SDS011;6943;52.368;9.966;2023-04-25T07:09:08;9.93;;;3.07;;
13743;SDS011;6943;52.368;9.966;2023-04-25T07:11:37;9.73;;;3.20;;
13743;SDS011;6943;52.368;9.966;2023-04-25T07:14:03;12.17;;;3.57;;
13743;SDS011;6943;52.368;9.966;2023-04-25T07:16:28;11.77;;;4.10;;
13743;SDS011;6943;52.368;9.966;2023-04-25T07:18:54;7.97;;;2.87;;
13743;SDS011;6943;52.368;9.966;2023-04-25T07:21:20;9.43;;;3.63;;
13743;SDS011;6943;52.368;9.966;2023-04-25T07:23:46;9.77;;;3.00;;
13743;SDS011;6943;52.368;9.966;2023-04-25T07:26:11;12.40;;;3.07;;
13743;SDS011;6943;52.368;9.966;2023-04-25T07:28:37;16.00;;;3.47;;
13743;SDS011;6943;52.368;9.966;2023-04-25T07:31:03;10.23;;;2.90;;
13743;SDS011;6943;52.368;9.966;2023-04-25T07:33:28;9.23;;;2.93;;
13743;SDS011;6943;52.368;9.966;2023-04-25T07:35:54;6.77;;;2.73;;
13743;SDS011;6943;52.368;9.966;2023-04-25T07:38:20;10.90;;;3.73;;
13743;SDS011;6943;52.368;9.966;2023-04-25T07:40:47;9.27;;;3.10;;
13743;SDS011;6943;52.368;9.966;2023-04-25T07:43:13;10.40;;;3.40;;
13743;SDS011;6943;52.368;9.966;2023-04-25T07:45:41;10.57;;;3.07;;
13743;SDS011;6943;52.368;9.966;2023-04-25T07:48:07;9.60;;;2.80;;
13743;SDS011;6943;52.368;9.966;2023-04-25T07:50:33;11.17;;;2.73;;
13743;SDS011;6943;52.368;9.966;2023-04-25T07:52:58;9.97;;;3.07;;
13743;SDS011;6943;52.368;9.966;2023-04-25T07:55:24;7.90;;;2.70;;
13743;SDS011;6943;52.368;9.966;2023-04-25T07:57:49;11.90;;;2.80;;
13743;SDS011;6943;52.368;9.966;2023-04-25T08:00:15;12.40;;;2.93;;
13743;SDS011;6943;52.368;9.966;2023-04-25T08:02:41;12.50;;;2.90;;
13743;SDS011;6943;52.368;9.966;2023-04-25T08:05:06;10.27;;;2.60;;
13743;SDS011;6943;52.368;9.966;2023-04-25T08:07:33;12.57;;;3.10;;
13743;SDS011;6943;52.368;9.966;2023-04-25T08:09:59;7.63;;;2.37;;
13743;SDS011;6943;52.368;9.966;2023-04-25T08:12:24;6.43;;;2.70;;
13743;SDS011;6943;52.368;9.966;2023-04-25T08:14:49;7.97;;;2.73;;
13743;SDS011;6943;52.368;9.966;2023-04-25T08:17:15;8.07;;;2.53;;
13743;SDS011;6943;52.368;9.966;2023-04-25T08:19:41;7.40;;;2.50;;
13743;SDS011;6943;52.368;9.966;2023-04-25T08:22:06;6.77;;;2.30;;
13743;SDS011;6943;52.368;9.966;2023-04-25T08:24:32;5.47;;;2.30;;
13743;SDS011;6943;52.368;9.966;2023-04-25T08:26:57;7.20;;;2.63;;
13743;SDS011;6943;52.368;9.966;2023-04-25T08:29:23;8.47;;;2.90;;
13743;SDS011;6943;52.368;9.966;2023-04-25T08:31:50;9.10;;;2.10;;
13743;SDS011;6943;52.368;9.966;2023-04-25T08:34:17;7.57;;;2.83;;
13743;SDS011;6943;52.368;9.966;2023-04-25T08:36:43;8.07;;;2.20;;
13743;SDS011;6943;52.368;9.966;2023-04-25T08:39:09;6.97;;;2.20;;
13743;SDS011;6943;52.368;9.966;2023-04-25T08:41:36;5.73;;;2.27;;
13743;SDS011;6943;52.368;9.966;2023-04-25T08:44:02;9.73;;;2.23;;
13743;SDS011;6943;52.368;9.966;2023-04-25T08:46:29;6.27;;;2.30;;
13743;SDS011;6943;52.368;9.966;2023-04-25T08:48:57;5.38;;;2.10;;
13743;SDS011;6943;52.368;9.966;2023-04-25T08:51:25;3.92;;;1.90;;
13743;SDS011;6943;52.368;9.966;2023-04-25T08:53:52;4.10;;;2.10;;
13743;SDS011;6943;52.368;9.966;2023-04-25T08:56:18;3.65;;;1.90;;
13743;SDS011;6943;52.368;9.966;2023-04-25T08:58:47;8.30;;;2.30;;
13743;SDS011;6943;52.368;9.966;2023-04-25T09:01:14;6.53;;;2.27;;
13743;SDS011;6943;52.368;9.966;2023-04-25T09:03:40;5.67;;;2.40;;
13743;SDS011;6943;52.368;9.966;2023-04-25T09:06:06;5.93;;;2.07;;
13743;SDS011;6943;52.368;9.966;2023-04-25T09:08:33;7.13;;;2.00;;
13743;SDS011;6943;52.368;9.966;2023-04-25T09:10:58;7.50;;;1.90;;
13743;SDS011;6943;52.368;9.966;2023-04-25T09:13:25;6.20;;;2.13;;
13743;SDS011;6943;52.368;9.966;2023-04-25T09:15:54;7.70;;;2.13;;
13743;SDS011;6943;52.368;9.966;2023-04-25T09:18:31;6.23;;;2.30;;
13743;SDS011;6943;52.368;9.966;2023-04-25T09:21:04;9.40;;;2.43;;
13743;SDS011;6943;52.368;9.966;2023-04-25T09:23:40;6.40;;;2.00;;
13743;SDS011;6943;52.368;9.966;2023-04-25T09:26:09;7.87;;;2.63;;
13743;SDS011;6943;52.368;9.966;2023-04-25T09:28:35;8.10;;;2.30;;
13743;SDS011;6943;52.368;9.966;2023-04-25T09:31:01;6.80;;;2.00;;
13743;SDS011;6943;52.368;9.966;2023-04-25T09:33:30;6.67;;;2.17;;
13743;SDS011;6943;52.368;9.966;2023-04-25T09:36:04;5.90;;;1.57;;
13743;SDS011;6943;52.368;9.966;2023-04-25T09:38:32;4.90;;;1.87;;
13743;SDS011;6943;52.368;9.966;2023-04-25T09:41:05;5.40;;;1.97;;
13743;SDS011;6943;52.368;9.966;2023-04-25T09:43:30;4.70;;;2.00;;
13743;SDS011;6943;52.368;9.966;2023-04-25T09:45:56;5.17;;;1.43;;
13743;SDS011;6943;52.368;9.966;2023-04-25T09:48:25;4.03;;;1.40;;
13743;SDS011;6943;52.368;9.966;2023-04-25T09:51:08;7.87;;;2.10;;
13743;SDS011;6943;52.368;9.966;2023-04-25T09:53:36;3.67;;;1.60;;
13743;SDS011;6943;52.368;9.966;2023-04-25T09:56:03;4.00;;;1.40;;
13743;SDS011;6943;52.368;9.966;2023-04-25T09:58:31;5.23;;;1.67;;
13743;SDS011;6943;52.368;9.966;2023-04-25T10:01:00;5.53;;;1.70;;
13743;SDS011;6943;52.368;9.966;2023-04-25T10:03:30;3.80;;;1.77;;
13743;SDS011;6943;52.368;9.966;2023-04-25T10:06:01;5.17;;;1.67;;
13743;SDS011;6943;52.368;9.966;2023-04-25T10:08:31;4.30;;;1.60;;
13743;SDS011;6943;52.368;9.966;2023-04-25T10:11:01;2.33;;;1.23;;
13743;SDS011;6943;52.368;9.966;2023-04-25T10:13:29;4.33;;;1.50;;
13743;SDS011;6943;52.368;9.966;2023-04-25T10:15:56;4.73;;;1.50;;
13743;SDS011;6943;52.368;9.966;2023-04-25T10:18:23;4.60;;;1.40;;
13743;SDS011;6943;52.368;9.966;2023-04-25T10:20:57;3.90;;;1.70;;
13743;SDS011;6943;52.368;9.966;2023-04-25T10:23:24;4.00;;;1.40;;
13743;SDS011;6943;52.368;9.966;2023-04-25T10:25:51;4.53;;;1.73;;
13743;SDS011;6943;52.368;9.966;2023-04-25T10:28:18;4.70;;;1.60;;
13743;SDS011;6943;52.368;9.966;2023-04-25T10:31:00;6.17;;;1.90;;
13743;SDS011;6943;52.368;9.966;2023-04-25T10:33:37;5.27;;;2.43;;
13743;SDS011;6943;52.368;9.966;2023-04-25T10:36:08;3.87;;;1.80;;
13743;SDS011;6943;52.368;9.966;2023-04-25T10:38:38;4.47;;;1.77;;
13743;SDS011;6943;52.368;9.966;2023-04-25T10:41:05;4.17;;;1.67;;
13743;SDS011;6943;52.368;9.966;2023-04-25T10:46:01;5.60;;;2.30;;
13743;SDS011;6943;52.368;9.966;2023-04-25T10:48:31;5.97;;;1.60;;
13743;SDS011;6943;52.368;9.966;2023-04-25T10:51:15;6.47;;;1.80;;
13743;SDS011;6943;52.368;9.966;2023-04-25T10:53:46;6.80;;;3.53;;
13743;SDS011;6943;52.368;9.966;2023-04-25T10:56:22;5.37;;;1.87;;
13743;SDS011;6943;52.368;9.966;2023-04-25T10:59:12;5.43;;;1.90;;
13743;SDS011;6943;52.368;9.966;2023-04-25T11:01:44;5.77;;;1.40;;
13743;SDS011;6943;52.368;9.966;2023-04-25T11:04:30;4.63;;;1.73;;
13743;SDS011;6943;52.368;9.966;2023-04-25T11:09:40;4.70;;;1.87;;
13743;SDS011;6943;52.368;9.966;2023-04-25T11:12:07;5.83;;;2.17;;
13743;SDS011;6943;52.368;9.966;2023-04-25T11:14:34;7.03;;;2.23;;
13743;SDS011;6943;52.368;9.966;2023-04-25T11:17:00;3.67;;;1.60;;
13743;SDS011;6943;52.368;9.966;2023-04-25T11:19:27;4.10;;;1.90;;
13743;SDS011;6943;52.368;9.966;2023-04-25T11:21:57;5.73;;;1.53;;
13743;SDS011;6943;52.368;9.966;2023-04-25T11:24:30;6.30;;;1.53;;
13743;SDS011;6943;52.368;9.966;2023-04-25T11:26:57;2.90;;;1.50;;
13743;SDS011;6943;52.368;9.966;2023-04-25T11:29:27;3.43;;;1.33;;
13743;SDS011;6943;52.368;9.966;2023-04-25T11:31:56;3.33;;;1.60;;
13743;SDS011;6943;52.368;9.966;2023-04-25T11:34:23;4.40;;;1.17;;
13743;SDS011;6943;52.368;9.966;2023-04-25T11:36:50;3.17;;;1.30;;
13743;SDS011;6943;52.368;9.966;2023-04-25T11:39:17;4.87;;;1.93;;
13743;SDS011;6943;52.368;9.966;2023-04-25T11:41:46;4.10;;;1.40;;
13743;SDS011;6943;52.368;9.966;2023-04-25T11:44:12;2.67;;;1.30;;
13743;SDS011;6943;52.368;9.966;2023-04-25T11:46:40;3.93;;;1.60;;
13743;SDS011;6943;52.368;9.966;2023-04-25T11:49:07;4.30;;;1.57;;
13743;SDS011;6943;52.368;9.966;2023-04-25T11:51:42;3.70;;;1.80;;
13743;SDS011;6943;52.368;9.966;2023-04-25T11:54:09;3.93;;;1.87;;
13743;SDS011;6943;52.368;9.966;2023-04-25T11:56:36;4.80;;;1.80;;
13743;SDS011;6943;52.368;9.966;2023-04-25T11:59:02;2.93;;;1.30;;
13743;SDS011;6943;52.368;9.966;2023-04-25T12:01:30;5.43;;;1.60;;
13743;SDS011;6943;52.368;9.966;2023-04-25T12:03:57;7.10;;;1.57;;
13743;SDS011;6943;52.368;9.966;2023-04-25T12:06:26;6.07;;;2.20;;
13743;SDS011;6943;52.368;9.966;2023-04-25T12:09:03;4.07;;;1.30;;
13743;SDS011;6943;52.368;9.966;2023-04-25T12:11:32;5.77;;;1.80;;
13743;SDS011;6943;52.368;9.966;2023-04-25T12:14:05;5.27;;;1.73;;
13743;SDS011;6943;52.368;9.966;2023-04-25T12:16:39;3.60;;;1.87;;
13743;SDS011;6943;52.368;9.966;2023-04-25T12:19:09;3.93;;;1.70;;
13743;SDS011;6943;52.368;9.966;2023-04-25T12:21:35;4.60;;;1.70;;
13743;SDS011;6943;52.368;9.966;2023-04-25T12:24:10;6.90;;;1.93;;
13743;SDS011;6943;52.368;9.966;2023-04-25T12:26:50;6.20;;;2.67;;
13743;SDS011;6943;52.368;9.966;2023-04-25T12:29:27;7.13;;;2.17;;
13743;SDS011;6943;52.368;9.966;2023-04-25T12:31:54;7.17;;;2.07;;
13743;SDS011;6943;52.368;9.966;2023-04-25T12:34:21;4.50;;;2.23;;
13743;SDS011;6943;52.368;9.966;2023-04-25T12:36:48;8.47;;;1.90;;
13743;SDS011;6943;52.368;9.966;2023-04-25T12:41:49;2.20;;;1.30;;
13743;SDS011;6943;52.368;9.966;2023-04-25T12:44:17;2.30;;;1.17;;
13743;SDS011;6943;52.368;9.966;2023-04-25T12:46:42;1.40;;;1.10;;
13743;SDS011;6943;52.368;9.966;2023-04-25T12:49:08;2.87;;;1.50;;
13743;SDS011;6943;52.368;9.966;2023-04-25T12:51:34;1.97;;;1.30;;
13743;SDS011;6943;52.368;9.966;2023-04-25T12:54:01;4.57;;;1.73;;
13743;SDS011;6943;52.368;9.966;2023-04-25T12:56:27;6.53;;;1.53;;
13743;SDS011;6943;52.368;9.966;2023-04-25T12:58:53;4.17;;;1.27;;
13743;SDS011;6943;52.368;9.966;2023-04-25T13:01:19;1.43;;;0.97;;
13743;SDS011;6943;52.368;9.966;2023-04-25T13:03:45;2.83;;;0.80;;
13743;SDS011;6943;52.368;9.966;2023-04-25T13:06:12;2.77;;;0.80;;
13743;SDS011;6943;52.368;9.966;2023-04-25T13:08:39;2.03;;;0.83;;
13743;SDS011;6943;52.368;9.966;2023-04-25T13:11:06;1.70;;;0.70;;
13743;SDS011;6943;52.368;9.966;2023-04-25T13:13:31;2.93;;;0.90;;
13743;SDS011;6943;52.368;9.966;2023-04-25T13:15:57;1.80;;;0.70;;
13743;SDS011;6943;52.368;9.966;2023-04-25T13:18:23;2.07;;;0.70;;
13743;SDS011;6943;52.368;9.966;2023-04-25T13:20:52;1.17;;;0.90;;
13743;SDS011;6943;52.368;9.966;2023-04-25T13:23:18;3.57;;;0.80;;
13743;SDS011;6943;52.368;9.966;2023-04-25T13:25:45;3.87;;;1.03;;
13743;SDS011;6943;52.368;9.966;2023-04-25T13:28:10;4.43;;;1.00;;
13743;SDS011;6943;52.368;9.966;2023-04-25T13:30:36;2.00;;;0.70;;
13743;SDS011;6943;52.368;9.966;2023-04-25T13:33:01;1.90;;;1.00;;
13743;SDS011;6943;52.368;9.966;2023-04-25T13:35:28;4.07;;;1.03;;
13743;SDS011;6943;52.368;9.966;2023-04-25T13:37:54;2.50;;;1.17;;
13743;SDS011;6943;52.368;9.966;2023-04-25T13:40:20;2.93;;;1.20;;
13743;SDS011;6943;52.368;9.966;2023-04-25T13:42:46;3.03;;;0.90;;
13743;SDS011;6943;52.368;9.966;2023-04-25T13:45:11;4.27;;;1.67;;
13743;SDS011;6943;52.368;9.966;2023-04-25T13:47:37;4.93;;;1.83;;
13743;SDS011;6943;52.368;9.966;2023-04-25T13:50:03;2.10;;;1.10;;
13743;SDS011;6943;52.368;9.966;2023-04-25T13:52:30;5.33;;;1.23;;
13743;SDS011;6943;52.368;9.966;2023-04-25T13:54:56;1.97;;;1.27;;
13743;SDS011;6943;52.368;9.966;2023-04-25T13:57:22;8.87;;;4.10;;
13743;SDS011;6943;52.368;9.966;2023-04-25T13:59:48;12.10;;;4.80;;
13743;SDS011;6943;52.368;9.966;2023-04-25T14:02:13;8.33;;;4.47;;
13743;SDS011;6943;52.368;9.966;2023-04-25T14:04:40;8.83;;;5.27;;
13743;SDS011;6943;52.368;9.966;2023-04-25T14:07:05;5.00;;;3.93;;
13743;SDS011;6943;52.368;9.966;2023-04-25T14:09:31;4.40;;;1.83;;
13743;SDS011;6943;52.368;9.966;2023-04-25T14:11:56;4.87;;;1.90;;
13743;SDS011;6943;52.368;9.966;2023-04-25T14:14:22;4.77;;;1.77;;
13743;SDS011;6943;52.368;9.966;2023-04-25T14:16:48;4.27;;;1.30;;
13743;SDS011;6943;52.368;9.966;2023-04-25T14:19:15;3.87;;;1.30;;
13743;SDS011;6943;52.368;9.966;2023-04-25T14:21:41;1.40;;;1.00;;
13743;SDS011;6943;52.368;9.966;2023-04-25T14:24:08;2.77;;;1.20;;
13743;SDS011;6943;52.368;9.966;2023-04-25T14:26:35;2.73;;;1.20;;
13743;SDS011;6943;52.368;9.966;2023-04-25T14:29:01;2.23;;;0.90;;
13743;SDS011;6943;52.368;9.966;2023-04-25T14:31:27;1.40;;;0.90;;
13743;SDS011;6943;52.368;9.966;2023-04-25T14:33:53;2.83;;;1.30;;
13743;SDS011;6943;52.368;9.966;2023-04-25T14:36:18;2.43;;;1.03;;
13743;SDS011;6943;52.368;9.966;2023-04-25T14:38:44;1.93;;;1.63;;
13743;SDS011;6943;52.368;9.966;2023-04-25T14:41:10;2.47;;;1.20;;
13743;SDS011;6943;52.368;9.966;2023-04-25T14:43:36;4.97;;;1.20;;
13743;SDS011;6943;52.368;9.966;2023-04-25T14:46:01;3.10;;;1.00;;
13743;SDS011;6943;52.368;9.966;2023-04-25T14:48:27;3.40;;;1.30;;
13743;SDS011;6943;52.368;9.966;2023-04-25T14:50:53;2.37;;;1.20;;
13743;SDS011;6943;52.368;9.966;2023-04-25T14:53:21;2.70;;;1.20;;
13743;SDS011;6943;52.368;9.966;2023-04-25T14:55:47;1.13;;;1.00;;
13743;SDS011;6943;52.368;9.966;2023-04-25T14:58:13;4.53;;;1.30;;
13743;SDS011;6943;52.368;9.966;2023-04-25T15:00:39;2.30;;;1.37;;